Time;durP1;ratioP1;P1;durP2;ratioP2;P2;SDS_P1;SDS_P2;PMS_P1;PMS_P2;Temp;Humidity;BMP_temperature;BMP_pressure;BME280_temperature;BME280_humidity;BME280_pressure;Samples;Min_cycle;Max_cycle;Signal;HPM_P1;HPM_P2
2023/06/19 00:02:15;;;;;;;30.48;27.40;;;16.90;99.90;;;;;;5055225;28;20462;-49
2023/06/19 00:04:42;;;;;;;32.80;29.40;;;16.90;99.90;;;;;;5055383;28;20071;-49
2023/06/19 00:07:08;;;;;;;30.38;27.38;;;16.90;99.90;;;;;;5054208;28;20041;-52
2023/06/19 00:09:35;;;;;;;33.22;29.73;;;16.80;99.90;;;;;;5055190;28;20128;-51
2023/06/19 00:12:04;;;;;;;31.65;28.45;;;16.80;99.90;;;;;;5055400;28;20099;-51
2023/06/19 00:14:30;;;;;;;30.85;27.75;;;16.80;99.90;;;;;;5055185;28;20033;-49
2023/06/19 00:16:57;;;;;;;30.73;27.75;;;16.80;99.90;;;;;;5055423;28;20178;-52
2023/06/19 00:19:24;;;;;;;31.33;27.75;;;16.90;99.90;;;;;;5055094;28;20055;-52
2023/06/19 00:21:51;;;;;;;28.85;25.75;;;16.90;99.90;;;;;;5053685;28;20041;-52
2023/06/19 00:24:18;;;;;;;27.55;24.77;;;17.10;99.90;;;;;;5055212;28;20045;-51
2023/06/19 00:26:44;;;;;;;27.80;25.13;;;17.10;99.90;;;;;;5055350;28;20048;-49
2023/06/19 00:29:11;;;;;;;28.08;25.27;;;17.20;99.90;;;;;;5055117;28;20041;-53
2023/06/19 00:31:38;;;;;;;26.05;23.35;;;17.20;99.90;;;;;;5054932;28;20491;-52
2023/06/19 00:34:05;;;;;;;27.23;24.35;;;17.20;99.90;;;;;;5054487;28;20124;-45
2023/06/19 00:36:32;;;;;;;26.13;23.42;;;17.30;99.90;;;;;;5054880;28;20034;-51
2023/06/19 00:38:59;;;;;;;25.75;23.05;;;17.20;99.90;;;;;;5053583;28;20055;-47
2023/06/19 00:41:25;;;;;;;25.77;23.17;;;17.30;99.90;;;;;;5054592;28;20048;-45
2023/06/19 00:43:54;;;;;;;25.92;23.33;;;17.30;99.90;;;;;;5054359;28;20044;-53
2023/06/19 00:46:20;;;;;;;26.75;23.92;;;17.30;99.90;;;;;;5054302;28;20037;-49
2023/06/19 00:48:47;;;;;;;25.67;23.08;;;17.30;99.90;;;;;;5054104;28;20511;-45
2023/06/19 00:51:14;;;;;;;26.30;23.33;;;17.30;99.90;;;;;;5054085;28;20040;-47
2023/06/19 00:53:41;;;;;;;25.65;23.05;;;17.40;99.90;;;;;;5054003;28;20048;-45
2023/06/19 00:56:08;;;;;;;26.33;22.70;;;17.40;99.90;;;;;;5052716;28;20049;-48
2023/06/19 00:58:35;;;;;;;25.05;22.55;;;17.40;99.90;;;;;;5053953;28;20448;-47
2023/06/19 01:01:01;;;;;;;25.30;22.52;;;17.30;99.90;;;;;;5053268;28;20047;-48
2023/06/19 01:03:36;;;;;;;25.40;22.80;;;17.30;99.90;;;;;;5052930;28;20049;-46
2023/06/19 01:06:03;;;;;;;26.00;23.20;;;17.30;99.90;;;;;;5052782;28;20053;-45
2023/06/19 01:08:30;;;;;;;24.77;22.13;;;17.30;99.90;;;;;;5052962;28;20041;-50
2023/06/19 01:10:57;;;;;;;25.80;23.05;;;17.30;99.90;;;;;;5053179;28;20036;-51
2023/06/19 01:13:23;;;;;;;25.42;22.40;;;17.30;99.90;;;;;;5053732;28;20049;-44
2023/06/19 01:15:50;;;;;;;25.58;21.52;;;17.30;99.90;;;;;;5054003;28;20099;-46
2023/06/19 01:18:17;;;;;;;25.17;22.08;;;17.30;99.90;;;;;;5052522;28;20051;-45
2023/06/19 01:20:44;;;;;;;24.60;21.00;;;17.30;99.90;;;;;;5052935;28;20458;-49
2023/06/19 01:23:11;;;;;;;23.83;21.20;;;17.30;99.90;;;;;;5052426;28;20215;-51
2023/06/19 01:25:39;;;;;;;24.25;21.40;;;17.30;99.90;;;;;;5054283;28;20091;-46
2023/06/19 01:28:09;;;;;;;25.48;21.80;;;17.30;99.90;;;;;;5053835;28;20041;-46
2023/06/19 01:30:36;;;;;;;24.52;20.38;;;17.30;99.90;;;;;;5053838;28;20546;-43
2023/06/19 01:33:02;;;;;;;23.50;21.10;;;17.30;99.90;;;;;;5052023;28;20041;-47
2023/06/19 01:35:29;;;;;;;24.63;20.88;;;17.20;99.90;;;;;;5053364;28;20040;-47
2023/06/19 01:37:57;;;;;;;23.75;21.20;;;17.20;99.90;;;;;;5053369;28;20125;-43
2023/06/19 01:40:25;;;;;;;22.60;20.23;;;17.20;99.90;;;;;;5052571;28;20068;-46
2023/06/19 01:42:53;;;;;;;28.08;21.95;;;17.20;99.90;;;;;;5053290;28;20103;-47
2023/06/19 01:45:20;;;;;;;29.25;22.33;;;17.10;99.90;;;;;;5053851;28;20087;-43
2023/06/19 01:47:46;;;;;;;25.83;20.58;;;17.10;99.90;;;;;;5052680;28;20468;-44
2023/06/19 01:50:13;;;;;;;24.00;21.42;;;17.10;99.90;;;;;;5053615;28;20049;-44
2023/06/19 01:52:40;;;;;;;26.63;21.55;;;17.00;99.90;;;;;;5053628;28;20041;-49
2023/06/19 01:55:07;;;;;;;24.10;21.00;;;16.90;99.90;;;;;;5054508;28;20417;-47
2023/06/19 01:57:36;;;;;;;23.63;20.92;;;16.80;99.90;;;;;;5052883;28;20041;-52
2023/06/19 02:00:04;;;;;;;26.08;22.52;;;16.80;99.90;;;;;;5051860;28;20061;-48
2023/06/19 02:02:39;;;;;;;24.08;21.17;;;16.80;99.90;;;;;;5053374;28;20412;-48
2023/06/19 02:05:06;;;;;;;25.83;21.45;;;16.70;99.90;;;;;;5051998;28;20049;-45
2023/06/19 02:07:33;;;;;;;24.10;21.30;;;16.70;99.90;;;;;;5052220;28;20041;-51
2023/06/19 02:10:00;;;;;;;25.25;21.38;;;16.60;99.90;;;;;;5053090;28;20086;-48
2023/06/19 02:12:27;;;;;;;24.00;21.23;;;16.60;99.90;;;;;;5053250;28;20037;-46
2023/06/19 02:14:54;;;;;;;24.92;21.55;;;16.50;99.90;;;;;;5052079;28;20049;-45
2023/06/19 02:17:21;;;;;;;24.77;21.20;;;16.50;99.90;;;;;;5051880;28;20044;-47
2023/06/19 02:19:48;;;;;;;23.45;20.42;;;16.50;99.90;;;;;;5052043;28;20137;-48
2023/06/19 02:22:16;;;;;;;23.77;20.98;;;16.50;99.90;;;;;;5051956;28;20080;-47
2023/06/19 02:24:44;;;;;;;22.52;20.20;;;16.50;99.90;;;;;;5053141;28;20116;-52
2023/06/19 02:27:12;;;;;;;25.60;20.33;;;16.40;99.90;;;;;;5051910;28;20041;-48
2023/06/19 02:29:39;;;;;;;22.08;18.65;;;16.40;99.90;;;;;;5053276;28;20140;-49
2023/06/19 02:32:06;;;;;;;23.48;19.25;;;16.40;99.90;;;;;;5052945;28;20061;-47
2023/06/19 02:34:33;;;;;;;23.38;18.80;;;16.40;99.90;;;;;;5053177;28;20430;-45
2023/06/19 02:37:00;;;;;;;22.40;18.58;;;16.30;99.90;;;;;;5051616;28;20037;-44
2023/06/19 02:39:27;;;;;;;19.15;17.00;;;16.30;99.90;;;;;;5053020;28;20163;-44
2023/06/19 02:41:54;;;;;;;19.52;17.30;;;16.20;99.90;;;;;;5052115;28;20045;-48
2023/06/19 02:44:20;;;;;;;21.08;16.95;;;16.20;99.90;;;;;;5053169;28;20041;-44
2023/06/19 02:46:47;;;;;;;18.70;16.02;;;16.20;99.90;;;;;;5054838;28;20460;-44
2023/06/19 02:49:15;;;;;;;19.08;16.13;;;16.10;99.90;;;;;;5056544;28;20103;-44
2023/06/19 02:51:42;;;;;;;20.25;16.08;;;16.10;99.90;;;;;;5056677;28;20115;-44
2023/06/19 02:54:09;;;;;;;18.17;16.33;;;16.10;99.90;;;;;;5056909;28;20376;-47
2023/06/19 02:56:35;;;;;;;19.45;15.57;;;16.10;99.90;;;;;;5056516;28;20041;-50
2023/06/19 02:59:02;;;;;;;20.60;15.75;;;16.00;99.90;;;;;;5056393;28;20079;-50
2023/06/19 03:01:29;;;;;;;21.48;15.25;;;16.00;99.90;;;;;;5056312;28;20041;-49
2023/06/19 03:03:56;;;;;;;18.63;14.88;;;16.00;99.90;;;;;;5056371;28;20436;-47
2023/06/19 03:06:23;;;;;;;22.13;15.50;;;15.90;99.90;;;;;;5056624;28;20045;-51
2023/06/19 03:08:49;;;;;;;18.67;15.68;;;15.90;99.90;;;;;;5054737;28;20077;-50
2023/06/19 03:11:17;;;;;;;17.83;15.32;;;15.90;99.90;;;;;;5055581;28;20372;-46
2023/06/19 03:13:44;;;;;;;19.13;14.90;;;15.90;99.90;;;;;;5054918;28;20582;-51
2023/06/19 03:16:11;;;;;;;19.90;15.50;;;15.90;99.90;;;;;;5056516;28;20037;-51
2023/06/19 03:18:38;;;;;;;19.05;15.10;;;15.90;99.90;;;;;;5056404;28;20052;-48
2023/06/19 03:21:05;;;;;;;17.90;15.40;;;15.80;99.90;;;;;;5054583;28;20102;-48
2023/06/19 03:23:32;;;;;;;18.02;14.57;;;15.80;99.90;;;;;;5055697;28;20079;-48
2023/06/19 03:25:59;;;;;;;19.80;14.65;;;15.80;99.90;;;;;;5055328;28;20107;-48
2023/06/19 03:28:26;;;;;;;18.23;13.88;;;15.80;99.90;;;;;;5054666;28;20055;-50
2023/06/19 03:30:54;;;;;;;15.25;13.70;;;15.80;99.90;;;;;;5055106;28;20114;-49
2023/06/19 03:33:23;;;;;;;17.70;14.38;;;15.80;99.90;;;;;;5054244;28;20052;-51
2023/06/19 03:35:49;;;;;;;18.05;15.93;;;15.80;99.90;;;;;;5056352;28;20051;-51
2023/06/19 03:38:36;;;;;;;21.70;17.42;;;15.80;99.90;;;;;;5055008;28;20056;-49
2023/06/19 03:41:03;;;;;;;22.45;17.58;;;15.70;99.90;;;;;;5054706;28;20049;-46
2023/06/19 03:43:30;;;;;;;22.50;18.55;;;15.80;99.90;;;;;;5054705;28;20480;-46
2023/06/19 03:45:57;;;;;;;24.00;18.67;;;15.70;99.90;;;;;;5054385;28;20045;-51
2023/06/19 03:48:24;;;;;;;23.42;19.20;;;15.70;99.90;;;;;;5038224;28;20058;-47
2023/06/19 03:50:51;;;;;;;21.98;19.13;;;15.70;99.90;;;;;;5056107;28;20421;-44
2023/06/19 03:53:18;;;;;;;23.58;18.95;;;15.70;99.90;;;;;;5054393;28;20071;-48
2023/06/19 03:55:45;;;;;;;23.70;19.77;;;15.70;99.90;;;;;;5055442;28;20047;-48
2023/06/19 03:58:12;;;;;;;24.45;19.13;;;15.60;99.90;;;;;;5054113;28;20552;-46
2023/06/19 04:00:39;;;;;;;25.40;20.23;;;15.60;99.90;;;;;;5054526;28;20420;-48
2023/06/19 04:03:06;;;;;;;27.52;20.05;;;15.60;99.90;;;;;;5054490;28;20037;-52
2023/06/19 04:05:33;;;;;;;23.60;18.98;;;15.60;99.90;;;;;;5053894;28;20397;-47
2023/06/19 04:08:00;;;;;;;22.23;19.00;;;15.60;99.90;;;;;;5053770;28;20041;-51
2023/06/19 04:10:27;;;;;;;25.52;19.17;;;15.70;99.90;;;;;;5054103;28;20099;-47
2023/06/19 04:12:56;;;;;;;22.25;19.15;;;15.70;99.90;;;;;;5054000;28;20037;-48
2023/06/19 04:15:22;;;;;;;26.02;19.15;;;15.70;99.90;;;;;;5054388;28;20451;-48
2023/06/19 04:17:49;;;;;;;20.77;17.85;;;15.70;99.90;;;;;;5054351;28;20361;-48
2023/06/19 04:20:16;;;;;;;23.10;19.08;;;15.70;99.90;;;;;;5055587;28;20108;-52
2023/06/19 04:22:45;;;;;;;25.77;18.77;;;15.70;99.90;;;;;;5053603;28;20079;-48
2023/06/19 04:25:13;;;;;;;25.30;19.33;;;15.70;99.90;;;;;;5053673;28;20570;-51
2023/06/19 04:27:39;;;;;;;22.73;18.90;;;15.80;99.90;;;;;;5055277;28;20045;-48
2023/06/19 04:30:06;;;;;;;25.67;19.50;;;15.80;99.90;;;;;;5055071;28;20120;-50
2023/06/19 04:32:34;;;;;;;26.85;19.65;;;15.80;99.90;;;;;;5054582;28;20499;-48
2023/06/19 04:35:01;;;;;;;22.67;18.35;;;15.80;99.90;;;;;;5054808;28;20041;-49
2023/06/19 04:37:28;;;;;;;24.05;19.08;;;15.90;99.90;;;;;;5055302;28;20041;-47
2023/06/19 04:39:56;;;;;;;22.58;18.30;;;16.00;99.90;;;;;;5054924;28;20076;-51
2023/06/19 04:42:22;;;;;;;23.52;19.52;;;16.00;99.90;;;;;;5054700;28;20096;-46
2023/06/19 04:44:49;;;;;;;21.88;18.35;;;16.00;99.90;;;;;;5054672;28;20056;-45
2023/06/19 04:47:16;;;;;;;22.85;18.63;;;16.10;99.90;;;;;;5053721;28;20044;-50
2023/06/19 04:49:43;;;;;;;23.50;18.80;;;16.10;99.90;;;;;;5054284;28;20037;-49
2023/06/19 04:52:11;;;;;;;21.67;18.60;;;16.10;99.90;;;;;;5054481;28;20045;-50
2023/06/19 04:54:38;;;;;;;22.48;19.42;;;16.10;99.90;;;;;;5054617;28;20480;-48
2023/06/19 04:57:04;;;;;;;24.92;19.67;;;16.10;99.90;;;;;;5054447;28;20542;-51
2023/06/19 04:59:31;;;;;;;24.65;18.95;;;16.20;99.90;;;;;;5054570;28;20091;-48
2023/06/19 05:01:58;;;;;;;27.27;19.15;;;16.30;99.90;;;;;;5054698;28;20065;-50
2023/06/19 05:04:25;;;;;;;28.95;19.80;;;16.30;99.90;;;;;;5052908;28;20053;-51
2023/06/19 05:06:52;;;;;;;22.92;19.95;;;16.30;99.90;;;;;;5054488;28;20041;-52
2023/06/19 05:09:19;;;;;;;27.83;20.42;;;16.40;99.90;;;;;;5053939;28;20041;-50
2023/06/19 05:11:46;;;;;;;26.23;20.73;;;16.40;99.90;;;;;;5054615;28;20060;-52
2023/06/19 05:14:14;;;;;;;25.42;19.60;;;16.50;99.90;;;;;;5054514;28;20044;-49
2023/06/19 05:16:41;;;;;;;24.05;19.27;;;16.50;99.90;;;;;;5054500;28;20045;-50
2023/06/19 05:19:08;;;;;;;26.65;20.45;;;16.60;99.90;;;;;;5053886;28;20503;-52
2023/06/19 05:21:35;;;;;;;25.08;19.10;;;16.60;99.90;;;;;;5054193;28;20044;-49
2023/06/19 05:24:02;;;;;;;22.98;19.45;;;16.70;99.90;;;;;;5054154;28;20112;-49
2023/06/19 05:26:29;;;;;;;23.30;18.65;;;16.90;99.90;;;;;;5054333;28;20045;-50
2023/06/19 05:28:55;;;;;;;23.42;18.92;;;17.00;99.90;;;;;;5052557;28;20043;-49
2023/06/19 05:31:22;;;;;;;21.92;18.83;;;17.10;99.90;;;;;;5053724;28;20086;-52
2023/06/19 05:33:49;;;;;;;23.65;18.15;;;17.30;99.90;;;;;;5053600;28;20128;-53
2023/06/19 05:36:16;;;;;;;24.85;19.25;;;17.40;99.90;;;;;;5053954;28;20440;-49
2023/06/19 05:38:43;;;;;;;19.95;17.42;;;17.50;99.90;;;;;;5054112;28;20061;-54
2023/06/19 05:41:09;;;;;;;19.38;16.08;;;17.70;99.90;;;;;;5053651;28;20051;-50
2023/06/19 05:43:36;;;;;;;20.77;16.30;;;17.80;99.90;;;;;;5053582;28;20061;-53
2023/06/19 05:46:03;;;;;;;21.20;16.80;;;17.90;99.90;;;;;;5053905;28;20045;-52
2023/06/19 05:48:30;;;;;;;18.35;15.68;;;18.00;99.90;;;;;;5052272;28;20067;-49
2023/06/19 05:50:57;;;;;;;18.83;16.58;;;18.10;99.90;;;;;;5053495;28;20079;-50
2023/06/19 05:53:24;;;;;;;18.75;15.35;;;18.20;99.90;;;;;;5052228;28;20546;-48
2023/06/19 05:55:50;;;;;;;20.65;16.33;;;18.30;99.90;;;;;;5052403;28;20048;-49
2023/06/19 05:58:21;;;;;;;16.80;14.85;;;18.40;99.90;;;;;;5053724;28;20041;-46
2023/06/19 06:00:48;;;;;;;20.15;16.17;;;18.50;99.90;;;;;;5053611;28;20043;-50
2023/06/19 06:03:15;;;;;;;18.02;15.15;;;18.60;99.90;;;;;;5053493;28;20446;-47
2023/06/19 06:05:43;;;;;;;16.80;15.10;;;18.60;99.90;;;;;;5053696;28;20376;-51
2023/06/19 06:08:10;;;;;;;18.15;15.23;;;18.60;99.90;;;;;;5053749;28;20086;-51
2023/06/19 06:10:36;;;;;;;19.52;15.07;;;18.60;99.90;;;;;;5053542;28;20155;-50
2023/06/19 06:13:03;;;;;;;18.15;14.70;;;18.60;99.90;;;;;;5053326;28;20044;-49
2023/06/19 06:15:30;;;;;;;19.17;15.25;;;18.60;99.90;;;;;;5053552;28;20041;-48
2023/06/19 06:17:57;;;;;;;18.67;15.60;;;18.60;99.90;;;;;;5053148;28;20040;-48
2023/06/19 06:20:23;;;;;;;19.63;15.15;;;18.70;99.90;;;;;;5054406;28;20451;-46
2023/06/19 06:22:51;;;;;;;17.95;14.52;;;18.70;99.90;;;;;;5057071;28;20068;-52
2023/06/19 06:25:18;;;;;;;19.05;15.18;;;18.60;99.90;;;;;;5057098;28;20445;-45
2023/06/19 06:27:44;;;;;;;19.58;14.57;;;18.60;99.90;;;;;;5057058;28;20492;-53
2023/06/19 06:30:11;;;;;;;18.55;13.73;;;18.60;99.90;;;;;;5057263;28;20033;-48
2023/06/19 06:32:38;;;;;;;19.58;14.13;;;18.60;99.90;;;;;;5057078;28;20076;-46
2023/06/19 06:35:05;;;;;;;16.30;13.32;;;18.60;99.90;;;;;;5057020;28;20045;-48
2023/06/19 06:37:32;;;;;;;18.75;14.05;;;18.60;99.90;;;;;;5057010;28;20041;-55
2023/06/19 06:39:59;;;;;;;19.00;14.23;;;18.60;99.90;;;;;;5057491;28;20037;-47
2023/06/19 06:42:25;;;;;;;18.13;13.50;;;18.60;99.90;;;;;;5056618;28;20040;-46
2023/06/19 06:44:53;;;;;;;18.23;13.88;;;18.70;99.90;;;;;;5056625;28;20083;-50
2023/06/19 06:47:20;;;;;;;15.05;13.02;;;18.70;99.90;;;;;;5056718;28;20408;-52
2023/06/19 06:49:47;;;;;;;20.02;13.98;;;18.70;99.90;;;;;;5056653;28;20041;-52
2023/06/19 06:52:13;;;;;;;16.20;12.98;;;18.70;99.90;;;;;;5056698;28;20045;-47
2023/06/19 06:54:40;;;;;;;16.13;12.80;;;18.70;99.90;;;;;;5057058;28;20041;-51
2023/06/19 06:57:08;;;;;;;15.63;12.45;;;18.80;99.90;;;;;;5055476;28;20037;-47
2023/06/19 06:59:34;;;;;;;17.98;12.55;;;18.80;99.90;;;;;;5056321;28;20415;-47
2023/06/19 07:02:01;;;;;;;14.85;11.35;;;18.80;99.90;;;;;;5056351;28;20048;-52
2023/06/19 07:04:28;;;;;;;14.00;11.63;;;18.80;99.90;;;;;;5056740;28;20472;-49
2023/06/19 07:06:55;;;;;;;16.25;11.43;;;18.90;99.90;;;;;;5056881;28;20545;-45
2023/06/19 07:09:22;;;;;;;14.05;11.43;;;18.90;99.90;;;;;;5056265;28;20041;-49
2023/06/19 07:11:49;;;;;;;14.15;10.95;;;18.90;99.90;;;;;;5056921;28;20422;-48
2023/06/19 07:14:19;;;;;;;13.98;10.82;;;18.90;99.90;;;;;;5056236;28;20472;-52
2023/06/19 07:16:46;;;;;;;12.43;10.30;;;19.00;99.90;;;;;;5056430;28;20040;-47
2023/06/19 07:19:13;;;;;;;13.20;9.23;;;19.00;99.90;;;;;;5056060;28;20047;-47
2023/06/19 07:21:40;;;;;;;12.95;9.73;;;19.00;99.90;;;;;;5055905;28;20059;-47
2023/06/19 07:24:07;;;;;;;12.85;9.55;;;19.10;99.90;;;;;;5055970;28;20106;-49
2023/06/19 07:26:34;;;;;;;14.70;9.48;;;19.20;99.90;;;;;;5056116;28;20063;-47
2023/06/19 07:29:00;;;;;;;11.43;9.63;;;19.30;99.90;;;;;;5055991;28;20083;-50
2023/06/19 07:31:27;;;;;;;10.73;9.13;;;19.30;99.90;;;;;;5055497;28;20062;-46
2023/06/19 07:33:54;;;;;;;11.57;9.27;;;19.40;99.90;;;;;;5055506;28;20048;-52
2023/06/19 07:36:21;;;;;;;11.43;9.00;;;19.50;99.90;;;;;;5056369;28;20041;-48
2023/06/19 07:38:48;;;;;;;14.15;8.77;;;19.60;99.90;;;;;;5056339;28;20538;-54
2023/06/19 07:41:15;;;;;;;12.18;8.48;;;19.70;99.90;;;;;;5056000;28;20391;-47
2023/06/19 07:43:41;;;;;;;16.92;8.38;;;19.80;99.90;;;;;;5055847;28;20040;-48
2023/06/19 07:46:08;;;;;;;10.07;7.60;;;19.80;99.90;;;;;;5055608;28;20488;-52
2023/06/19 07:48:35;;;;;;;13.77;8.52;;;19.90;99.90;;;;;;5055442;28;20075;-47
2023/06/19 07:51:02;;;;;;;13.23;8.27;;;19.90;99.90;;;;;;5055777;28;20033;-46
2023/06/19 07:53:29;;;;;;;10.70;7.70;;;20.00;99.90;;;;;;5055744;28;20049;-49
2023/06/19 07:55:55;;;;;;;11.82;8.15;;;20.10;99.90;;;;;;5055766;28;20047;-48
2023/06/19 07:58:22;;;;;;;13.57;8.48;;;20.10;99.90;;;;;;5055230;28;20136;-45
2023/06/19 08:00:49;;;;;;;13.80;7.85;;;20.20;99.90;;;;;;5056048;28;20056;-48
2023/06/19 08:03:16;;;;;;;13.68;7.00;;;20.20;99.90;;;;;;5055431;28;20041;-52
2023/06/19 08:05:43;;;;;;;10.15;7.22;;;20.30;99.90;;;;;;5055277;28;20041;-50
2023/06/19 08:08:09;;;;;;;12.07;7.20;;;20.30;99.90;;;;;;5055332;28;20048;-48
2023/06/19 08:10:36;;;;;;;10.27;7.63;;;20.30;99.90;;;;;;5055248;28;20431;-47
2023/06/19 08:13:03;;;;;;;11.20;7.35;;;20.30;99.90;;;;;;5055112;28;20040;-49
2023/06/19 08:15:30;;;;;;;10.77;7.00;;;20.30;99.90;;;;;;5054216;28;20033;-45
2023/06/19 08:17:56;;;;;;;10.68;6.45;;;20.30;99.90;;;;;;5055662;28;20120;-47
2023/06/19 08:20:23;;;;;;;10.63;6.50;;;20.30;99.90;;;;;;5055067;28;20646;-53
2023/06/19 08:22:50;;;;;;;10.93;5.75;;;20.30;99.90;;;;;;5055004;28;20476;-48
2023/06/19 08:25:17;;;;;;;11.32;5.72;;;20.30;99.90;;;;;;5055361;28;20060;-47
2023/06/19 08:27:45;;;;;;;8.60;5.97;;;20.30;99.90;;;;;;5055123;28;20075;-52
2023/06/19 08:30:11;;;;;;;7.57;5.40;;;20.30;99.90;;;;;;5055153;28;20041;-46
2023/06/19 08:32:38;;;;;;;8.88;5.90;;;20.40;99.90;;;;;;5054764;28;20496;-46
2023/06/19 08:35:06;;;;;;;7.57;5.38;;;20.40;99.90;;;;;;5054997;28;20063;-47
2023/06/19 08:37:32;;;;;;;8.15;5.30;;;20.50;99.90;;;;;;5054917;28;20087;-45
2023/06/19 08:39:59;;;;;;;14.07;5.57;;;20.50;99.90;;;;;;5055050;28;20129;-48
2023/06/19 08:42:26;;;;;;;7.53;4.97;;;20.50;99.90;;;;;;5052634;28;20053;-44
2023/06/19 08:44:53;;;;;;;7.68;4.97;;;20.60;99.90;;;;;;5054083;28;20044;-46
2023/06/19 08:47:20;;;;;;;7.18;4.60;;;20.60;99.90;;;;;;5054919;28;20044;-45
2023/06/19 08:49:47;;;;;;;9.73;5.20;;;20.60;99.90;;;;;;5053291;28;20091;-46
2023/06/19 08:52:14;;;;;;;10.43;5.82;;;20.70;99.90;;;;;;5054332;28;20048;-44
2023/06/19 08:54:43;;;;;;;9.80;5.72;;;20.70;99.90;;;;;;5054796;28;20037;-45
2023/06/19 08:57:12;;;;;;;9.90;4.63;;;20.70;99.90;;;;;;5054850;28;20418;-44
2023/06/19 08:59:39;;;;;;;8.25;4.72;;;20.70;99.90;;;;;;5054337;28;20407;-49
2023/06/19 09:02:06;;;;;;;6.88;4.47;;;20.70;99.90;;;;;;5054206;28;20049;-43
2023/06/19 09:04:33;;;;;;;9.23;5.00;;;20.80;99.90;;;;;;5053042;28;20037;-46
2023/06/19 09:07:00;;;;;;;7.40;4.72;;;20.80;99.90;;;;;;5054055;28;20131;-45
2023/06/19 09:09:32;;;;;;;7.70;4.78;;;21.00;99.90;;;;;;5052628;28;20146;-52
2023/06/19 09:12:00;;;;;;;9.77;4.70;;;21.10;99.90;;;;;;5053644;28;20037;-48
2023/06/19 09:14:26;;;;;;;10.23;5.00;;;21.30;99.90;;;;;;5054028;28;20052;-47
2023/06/19 09:16:53;;;;;;;8.05;5.03;;;21.40;99.90;;;;;;5053794;28;20041;-46
2023/06/19 09:19:20;;;;;;;6.60;4.70;;;21.50;99.90;;;;;;5054017;28;20396;-49
2023/06/19 09:21:47;;;;;;;8.48;4.80;;;21.70;99.90;;;;;;5053861;28;20055;-49
2023/06/19 09:24:14;;;;;;;9.90;5.00;;;21.70;99.90;;;;;;5054093;28;20044;-48
2023/06/19 09:26:40;;;;;;;9.35;5.10;;;21.70;99.90;;;;;;5054005;28;20051;-46
2023/06/19 09:29:07;;;;;;;8.55;4.95;;;21.70;99.90;;;;;;5053737;28;20498;-49
2023/06/19 09:31:41;;;;;;;9.45;4.63;;;21.70;99.90;;;;;;5053948;28;20559;-44
2023/06/19 09:34:08;;;;;;;6.88;4.72;;;21.70;99.80;;;;;;5053781;28;20033;-45
2023/06/19 09:36:35;;;;;;;7.20;4.88;;;21.70;99.90;;;;;;5053579;28;20071;-48
2023/06/19 09:39:03;;;;;;;6.32;4.18;;;21.70;99.70;;;;;;5052254;28;20410;-50
2023/06/19 09:41:30;;;;;;;6.78;4.38;;;21.70;99.70;;;;;;5053390;28;20066;-48
2023/06/19 09:43:59;;;;;;;7.80;4.35;;;21.80;99.40;;;;;;5052264;28;20040;-51
2023/06/19 09:46:26;;;;;;;7.70;4.55;;;21.90;99.70;;;;;;5054017;28;20036;-47
2023/06/19 09:48:54;;;;;;;9.05;4.90;;;22.00;98.80;;;;;;5053786;28;20040;-47
2023/06/19 09:51:21;;;;;;;8.75;4.38;;;22.10;99.30;;;;;;5051927;28;20384;-50
2023/06/19 09:53:52;;;;;;;7.63;4.55;;;22.20;99.60;;;;;;5051839;28;20087;-45
2023/06/19 09:56:21;;;;;;;6.13;4.50;;;22.30;99.70;;;;;;5053273;28;20492;-51
2023/06/19 09:58:49;;;;;;;8.60;4.68;;;22.50;99.40;;;;;;5053223;28;20059;-45
2023/06/19 10:01:18;;;;;;;8.70;4.90;;;22.50;98.70;;;;;;5053863;28;20053;-44
2023/06/19 10:03:45;;;;;;;7.57;4.82;;;22.50;99.20;;;;;;5053476;28;20049;-45
2023/06/19 10:06:12;;;;;;;8.68;5.10;;;22.50;99.30;;;;;;5052566;28;20060;-46
2023/06/19 10:08:38;;;;;;;8.75;4.53;;;22.50;99.60;;;;;;5053501;28;20041;-47
2023/06/19 10:11:05;;;;;;;6.55;4.40;;;22.60;98.80;;;;;;5053692;28;20037;-48
2023/06/19 10:13:32;;;;;;;6.78;4.30;;;22.70;98.90;;;;;;5053558;28;20041;-46
2023/06/19 10:15:59;;;;;;;9.15;4.70;;;22.80;98.30;;;;;;5053653;28;20033;-47
2023/06/19 10:18:26;;;;;;;10.63;5.30;;;22.80;98.00;;;;;;5053314;28;20052;-47
2023/06/19 10:20:53;;;;;;;6.70;4.20;;;22.70;98.50;;;;;;5053011;28;20048;-48
2023/06/19 10:23:21;;;;;;;8.63;4.53;;;22.80;98.90;;;;;;5053090;28;20051;-46
2023/06/19 10:25:48;;;;;;;7.55;4.65;;;22.80;98.60;;;;;;5053250;28;20045;-49
2023/06/19 10:28:14;;;;;;;6.50;4.45;;;22.90;98.20;;;;;;5053059;28;20440;-49
2023/06/19 10:30:41;;;;;;;8.18;3.90;;;23.00;98.60;;;;;;5052874;28;20037;-50
2023/06/19 10:33:08;;;;;;;6.32;3.90;;;23.10;97.00;;;;;;5053106;28;20132;-54
2023/06/19 10:35:35;;;;;;;6.88;3.55;;;23.20;96.30;;;;;;5053495;28;20041;-51
2023/06/19 10:38:02;;;;;;;6.60;3.90;;;23.10;95.90;;;;;;5052985;28;20037;-47
2023/06/19 10:40:28;;;;;;;7.80;3.90;;;23.10;96.60;;;;;;5053291;28;20048;-50
2023/06/19 10:42:55;;;;;;;8.32;4.53;;;23.10;96.50;;;;;;5053372;28;20128;-52
2023/06/19 10:45:28;;;;;;;5.20;3.78;;;23.00;96.90;;;;;;5053223;28;20045;-49
2023/06/19 10:47:55;;;;;;;5.78;3.67;;;23.10;96.50;;;;;;5053095;28;20071;-50
2023/06/19 10:50:22;;;;;;;6.22;4.10;;;23.10;96.60;;;;;;5052092;28;20099;-46
2023/06/19 10:52:50;;;;;;;7.78;4.00;;;23.10;96.40;;;;;;5052968;28;20040;-46
2023/06/19 10:55:16;;;;;;;7.03;4.22;;;23.20;96.50;;;;;;5051936;28;20076;-48
2023/06/19 10:57:43;;;;;;;6.35;3.83;;;23.20;96.80;;;;;;5053265;28;20041;-48
2023/06/19 11:00:14;;;;;;;7.07;4.07;;;23.30;96.30;;;;;;5052544;28;20045;-45
2023/06/19 11:02:43;;;;;;;10.02;4.72;;;23.40;96.20;;;;;;5052577;28;20073;-48
2023/06/19 11:05:11;;;;;;;6.53;4.10;;;23.50;96.80;;;;;;5052992;28;20039;-47
2023/06/19 11:07:38;;;;;;;7.47;3.97;;;23.60;96.60;;;;;;5055669;28;20139;-46
2023/06/19 11:10:05;;;;;;;6.68;4.00;;;23.60;95.80;;;;;;5056294;28;20126;-47
2023/06/19 11:12:35;;;;;;;5.35;3.33;;;23.60;95.70;;;;;;5056344;28;20063;-50
2023/06/19 11:15:02;;;;;;;6.38;4.25;;;23.50;95.90;;;;;;5055080;28;20107;-47
2023/06/19 11:17:29;;;;;;;7.75;3.97;;;23.50;96.10;;;;;;5056192;28;20037;-45
2023/06/19 11:19:56;;;;;;;6.10;3.42;;;23.50;96.30;;;;;;5056140;28;20049;-50
2023/06/19 11:22:23;;;;;;;5.80;3.50;;;23.40;95.70;;;;;;5056234;28;20461;-50
2023/06/19 11:24:50;;;;;;;8.88;4.28;;;23.30;96.10;;;;;;5056277;28;20116;-52
2023/06/19 11:27:17;;;;;;;7.55;4.03;;;23.40;96.40;;;;;;5056674;28;20049;-52
2023/06/19 11:29:44;;;;;;;5.30;3.65;;;23.40;96.50;;;;;;5056375;28;20099;-47
2023/06/19 11:32:11;;;;;;;6.25;3.90;;;23.40;96.30;;;;;;5054576;28;20037;-52
2023/06/19 11:34:39;;;;;;;7.90;4.40;;;23.40;96.40;;;;;;5055983;28;20126;-55
2023/06/19 11:37:06;;;;;;;5.53;4.05;;;23.40;96.60;;;;;;5055865;28;20544;-54
2023/06/19 11:39:33;;;;;;;8.32;4.45;;;23.40;96.40;;;;;;5054518;28;20124;-50
2023/06/19 11:42:00;;;;;;;8.45;5.07;;;23.40;96.30;;;;;;5054992;28;20056;-47
2023/06/19 11:44:27;;;;;;;6.95;3.90;;;23.50;96.00;;;;;;5056519;28;20492;-55
2023/06/19 11:46:54;;;;;;;7.72;4.93;;;23.50;96.00;;;;;;5055798;28;20123;-48
2023/06/19 11:49:20;;;;;;;8.25;4.50;;;23.60;96.60;;;;;;5055840;28;20044;-50
2023/06/19 11:51:48;;;;;;;6.00;4.38;;;23.60;95.70;;;;;;5055399;28;20040;-49
2023/06/19 11:54:14;;;;;;;6.20;3.53;;;23.60;95.90;;;;;;5056039;28;20045;-52
2023/06/19 11:56:41;;;;;;;6.22;3.85;;;23.60;95.70;;;;;;5056081;28;20037;-51
2023/06/19 11:59:08;;;;;;;7.18;3.60;;;23.60;95.90;;;;;;5055502;28;20049;-46
2023/06/19 12:01:39;;;;;;;8.75;4.05;;;23.70;95.60;;;;;;5056160;28;20053;-47
2023/06/19 12:04:06;;;;;;;7.03;3.95;;;23.80;95.70;;;;;;5055319;28;20041;-48
2023/06/19 12:06:35;;;;;;;6.32;3.90;;;23.80;95.90;;;;;;5056021;28;20354;-47
2023/06/19 12:09:04;;;;;;;6.57;3.70;;;23.80;95.80;;;;;;5055053;28;20108;-47
2023/06/19 12:11:31;;;;;;;10.20;4.05;;;23.70;95.50;;;;;;5055699;28;20562;-47
2023/06/19 12:13:58;;;;;;;6.88;4.30;;;23.80;95.80;;;;;;5055602;28;20041;-46
2023/06/19 12:16:25;;;;;;;5.35;3.65;;;23.80;95.80;;;;;;5055689;28;20045;-48
2023/06/19 12:18:52;;;;;;;6.07;3.60;;;23.70;95.40;;;;;;5055211;28;20037;-47
2023/06/19 12:21:19;;;;;;;6.93;4.10;;;23.80;96.10;;;;;;5054821;28;20044;-46
2023/06/19 12:24:03;;;;;;;7.18;3.65;;;23.90;96.00;;;;;;5055452;28;20076;-46
2023/06/19 12:26:31;;;;;;;6.53;3.35;;;23.80;95.30;;;;;;5055188;28;20041;-48
2023/06/19 12:28:58;;;;;;;7.28;3.40;;;23.80;95.30;;;;;;5055007;28;20056;-45
2023/06/19 12:31:25;;;;;;;9.30;3.30;;;23.80;95.40;;;;;;5055114;28;20040;-50
2023/06/19 12:33:52;;;;;;;4.97;2.95;;;23.80;95.50;;;;;;5054796;28;20056;-46